sensor_id;sensor_type;location;lat;lon;timestamp;pressure;altitude;pressure_sealevel;temperature;humidity
56600;BME280;51832;48.152;11.530;2023-10-31T00:01:25;94040.34;;;12.52;100.00
56600;BME280;51832;48.152;11.530;2023-10-31T00:06:26;94042.72;;;12.53;100.00
56600;BME280;51832;48.152;11.530;2023-10-31T00:11:26;94038.50;;;12.47;100.00
56600;BME280;51832;48.152;11.530;2023-10-31T00:16:27;94049.38;;;12.15;100.00
56600;BME280;51832;48.152;11.530;2023-10-31T00:21:27;94033.50;;;12.40;100.00
56600;BME280;51832;48.152;11.530;2023-10-31T00:26:27;94036.66;;;12.53;100.00
56600;BME280;51832;48.152;11.530;2023-10-31T00:31:28;94048.00;;;12.38;100.00
56600;BME280;51832;48.152;11.530;2023-10-31T00:36:28;94053.84;;;12.15;100.00
56600;BME280;51832;48.152;11.530;2023-10-31T00:41:29;94057.00;;;12.22;100.00
56600;BME280;51832;48.152;11.530;2023-10-31T00:46:29;94043.28;;;12.30;100.00
56600;BME280;51832;48.152;11.530;2023-10-31T00:51:30;94036.16;;;12.30;100.00
56600;BME280;51832;48.152;11.530;2023-10-31T00:56:30;94043.28;;;12.30;100.00
56600;BME280;51832;48.152;11.530;2023-10-31T01:01:31;94062.81;;;11.98;100.00
56600;BME280;51832;48.152;11.530;2023-10-31T01:06:32;94043.31;;;11.99;100.00
56600;BME280;51832;48.152;11.530;2023-10-31T01:11:32;94039.06;;;12.03;100.00
56600;BME280;51832;48.152;11.530;2023-10-31T01:16:32;94047.53;;;12.16;100.00
56600;BME280;51832;48.152;11.530;2023-10-31T01:21:33;94055.41;;;12.21;100.00
56600;BME280;51832;48.152;11.530;2023-10-31T01:26:34;94065.97;;;12.10;100.00
56600;BME280;51832;48.152;11.530;2023-10-31T01:31:36;94066.25;;;12.14;100.00
56600;BME280;51832;48.152;11.530;2023-10-31T01:36:37;94069.41;;;12.01;100.00
56600;BME280;51832;48.152;11.530;2023-10-31T01:41:41;94072.56;;;12.03;100.00
56600;BME280;51832;48.152;11.530;2023-10-31T01:46:41;94068.88;;;11.99;100.00
56600;BME280;51832;48.152;11.530;2023-10-31T01:51:42;94066.50;;;12.07;100.00
56600;BME280;51832;48.152;11.530;2023-10-31T01:56:43;94061.50;;;12.06;100.00
56600;BME280;51832;48.152;11.530;2023-10-31T02:01:44;94065.16;;;12.20;100.00
56600;BME280;51832;48.152;11.530;2023-10-31T02:06:44;94071.75;;;12.33;100.00
56600;BME280;51832;48.152;11.530;2023-10-31T02:11:45;94078.88;;;12.17;100.00
56600;BME280;51832;48.152;11.530;2023-10-31T02:16:46;94088.94;;;12.15;100.00
56600;BME280;51832;48.152;11.530;2023-10-31T02:21:46;94089.44;;;12.07;100.00
56600;BME280;51832;48.152;11.530;2023-10-31T02:26:47;94102.34;;;12.19;100.00
56600;BME280;51832;48.152;11.530;2023-10-31T02:31:47;94106.81;;;11.93;100.00
56600;BME280;51832;48.152;11.530;2023-10-31T02:36:48;94118.44;;;11.87;100.00
56600;BME280;51832;48.152;11.530;2023-10-31T02:41:48;94113.69;;;12.09;100.00
56600;BME280;51832;48.152;11.530;2023-10-31T02:46:49;94122.63;;;11.78;100.00
56600;BME280;51832;48.152;11.530;2023-10-31T02:51:49;94114.13;;;11.60;100.00
56600;BME280;51832;48.152;11.530;2023-10-31T02:56:50;94105.66;;;11.43;100.00
56600;BME280;51832;48.152;11.530;2023-10-31T03:01:51;94117.09;;;11.84;100.00
56600;BME280;51832;48.152;11.530;2023-10-31T03:06:52;94121.56;;;11.79;100.00
56600;BME280;51832;48.152;11.530;2023-10-31T03:11:52;94131.56;;;11.77;100.00
56600;BME280;51832;48.152;11.530;2023-10-31T03:16:53;94126.50;;;11.65;100.00
56600;BME280;51832;48.152;11.530;2023-10-31T03:21:53;94133.38;;;11.71;100.00
56600;BME280;51832;48.152;11.530;2023-10-31T03:26:54;94147.06;;;11.58;100.00
56600;BME280;51832;48.152;11.530;2023-10-31T03:31:55;94133.16;;;11.78;100.00
56600;BME280;51832;48.152;11.530;2023-10-31T03:36:55;94107.81;;;11.56;100.00
56600;BME280;51832;48.152;11.530;2023-10-31T03:41:56;94115.97;;;11.65;100.00
56600;BME280;51832;48.152;11.530;2023-10-31T03:46:56;94125.75;;;11.69;100.00
56600;BME280;51832;48.152;11.530;2023-10-31T03:51:57;94124.59;;;11.40;100.00
56600;BME280;51832;48.152;11.530;2023-10-31T03:56:57;94137.00;;;11.45;100.00
56600;BME280;51832;48.152;11.530;2023-10-31T04:01:58;94170.50;;;11.59;100.00
56600;BME280;51832;48.152;11.530;2023-10-31T04:06:58;94149.13;;;11.51;100.00
56600;BME280;51832;48.152;11.530;2023-10-31T04:11:59;94131.38;;;12.29;100.00
56600;BME280;51832;48.152;11.530;2023-10-31T04:16:59;94143.75;;;12.23;100.00
56600;BME280;51832;48.152;11.530;2023-10-31T04:22:00;94165.09;;;12.17;99.41
56600;BME280;51832;48.152;11.530;2023-10-31T04:27:00;94185.69;;;12.45;98.06
56600;BME280;51832;48.152;11.530;2023-10-31T04:32:01;94188.56;;;11.98;98.40
56600;BME280;51832;48.152;11.530;2023-10-31T04:37:02;94186.69;;;11.93;98.96
56600;BME280;51832;48.152;11.530;2023-10-31T04:42:02;94184.84;;;11.89;99.59
56600;BME280;51832;48.152;11.530;2023-10-31T04:47:03;94173.69;;;11.66;100.00
56600;BME280;51832;48.152;11.530;2023-10-31T04:52:03;94181.63;;;11.71;100.00
56600;BME280;51832;48.152;11.530;2023-10-31T04:57:04;94176.03;;;11.63;100.00
56600;BME280;51832;48.152;11.530;2023-10-31T05:02:04;94178.41;;;11.64;100.00
56600;BME280;51832;48.152;11.530;2023-10-31T05:07:05;94175.53;;;11.61;100.00
56600;BME280;51832;48.152;11.530;2023-10-31T05:12:06;94178.97;;;11.61;100.00
56600;BME280;51832;48.152;11.530;2023-10-31T05:17:06;94199.22;;;11.56;100.00
56600;BME280;51832;48.152;11.530;2023-10-31T05:22:06;94196.13;;;11.74;100.00
56600;BME280;51832;48.152;11.530;2023-10-31T05:27:07;94213.69;;;11.53;100.00
56600;BME280;51832;48.152;11.530;2023-10-31T05:32:08;94222.44;;;11.69;100.00
56600;BME280;51832;48.152;11.530;2023-10-31T05:37:09;94239.72;;;11.50;100.00
56600;BME280;51832;48.152;11.530;2023-10-31T05:42:09;94231.78;;;11.97;100.00
56600;BME280;51832;48.152;11.530;2023-10-31T05:47:10;94236.38;;;11.64;100.00
56600;BME280;51832;48.152;11.530;2023-10-31T05:52:10;94247.44;;;11.61;100.00
56600;BME280;51832;48.152;11.530;2023-10-31T05:57:11;94242.97;;;11.67;100.00
56600;BME280;51832;48.152;11.530;2023-10-31T06:02:12;94256.00;;;11.31;100.00
56600;BME280;51832;48.152;11.530;2023-10-31T06:07:13;94265.03;;;11.51;100.00
56600;BME280;51832;48.152;11.530;2023-10-31T06:12:14;94262.16;;;11.52;100.00
56600;BME280;51832;48.152;11.530;2023-10-31T06:17:14;94256.00;;;11.84;100.00
56600;BME280;51832;48.152;11.530;2023-10-31T06:22:14;94273.19;;;11.49;100.00
56600;BME280;51832;48.152;11.530;2023-10-31T06:27:15;94282.78;;;11.70;100.00
56600;BME280;51832;48.152;11.530;2023-10-31T06:32:15;94284.91;;;11.73;100.00
56600;BME280;51832;48.152;11.530;2023-10-31T06:37:16;94282.00;;;11.70;100.00
56600;BME280;51832;48.152;11.530;2023-10-31T06:42:17;94286.91;;;11.51;100.00
56600;BME280;51832;48.152;11.530;2023-10-31T06:47:17;94290.31;;;11.47;100.00
56600;BME280;51832;48.152;11.530;2023-10-31T06:52:17;94298.06;;;11.68;100.00
56600;BME280;51832;48.152;11.530;2023-10-31T06:57:18;94309.56;;;11.47;100.00
56600;BME280;51832;48.152;11.530;2023-10-31T07:02:18;94319.63;;;11.60;100.00
56600;BME280;51832;48.152;11.530;2023-10-31T07:07:19;94333.84;;;11.59;100.00
56600;BME280;51832;48.152;11.530;2023-10-31T07:12:19;94330.69;;;11.57;100.00
56600;BME280;51832;48.152;11.530;2023-10-31T07:17:20;94336.69;;;11.53;100.00
56600;BME280;51832;48.152;11.530;2023-10-31T07:22:20;94328.00;;;11.52;100.00
56600;BME280;51832;48.152;11.530;2023-10-31T07:27:23;94321.56;;;11.33;100.00
56600;BME280;51832;48.152;11.530;2023-10-31T07:32:24;94322.19;;;11.45;100.00
56600;BME280;51832;48.152;11.530;2023-10-31T07:37:24;94324.66;;;11.67;99.42
56600;BME280;51832;48.152;11.530;2023-10-31T07:42:25;94322.44;;;11.44;98.92
56600;BME280;51832;48.152;11.530;2023-10-31T07:47:25;94331.97;;;11.55;97.72
56600;BME280;51832;48.152;11.530;2023-10-31T07:52:25;94343.22;;;11.82;95.53
56600;BME280;51832;48.152;11.530;2023-10-31T07:57:26;94348.28;;;11.47;95.67
56600;BME280;51832;48.152;11.530;2023-10-31T08:02:26;94365.66;;;11.48;94.83
56600;BME280;51832;48.152;11.530;2023-10-31T08:07:27;94326.63;;;11.82;94.23
56600;BME280;51832;48.152;11.530;2023-10-31T08:12:30;94336.63;;;11.80;94.69
56600;BME280;51832;48.152;11.530;2023-10-31T08:17:30;94341.72;;;11.54;93.95
56600;BME280;51832;48.152;11.530;2023-10-31T08:22:31;94356.25;;;11.62;93.68
56600;BME280;51832;48.152;11.530;2023-10-31T08:27:32;94383.94;;;12.01;93.33
56600;BME280;51832;48.152;11.530;2023-10-31T08:32:32;94421.34;;;11.98;92.42
56600;BME280;51832;48.152;11.530;2023-10-31T08:37:32;94436.13;;;12.04;91.54
56600;BME280;51832;48.152;11.530;2023-10-31T08:42:33;94460.03;;;11.88;91.82
56600;BME280;51832;48.152;11.530;2023-10-31T08:47:33;94458.16;;;11.83;93.01
56600;BME280;51832;48.152;11.530;2023-10-31T08:52:34;94453.16;;;11.87;92.07
56600;BME280;51832;48.152;11.530;2023-10-31T08:57:35;94464.75;;;11.86;91.83
56600;BME280;51832;48.152;11.530;2023-10-31T09:02:35;94462.38;;;11.89;92.14
56600;BME280;51832;48.152;11.530;2023-10-31T09:07:36;94463.22;;;12.37;95.09
56600;BME280;51832;48.152;11.530;2023-10-31T09:12:36;94472.56;;;12.65;89.92
56600;BME280;51832;48.152;11.530;2023-10-31T09:17:37;94487.09;;;12.15;89.80
56600;BME280;51832;48.152;11.530;2023-10-31T09:22:37;94474.75;;;12.26;91.43
56600;BME280;51832;48.152;11.530;2023-10-31T09:27:40;94465.91;;;12.05;91.85
56600;BME280;51832;48.152;11.530;2023-10-31T09:32:41;94472.72;;;11.96;90.63
56600;BME280;51832;48.152;11.530;2023-10-31T09:37:41;94486.44;;;12.40;90.16
56600;BME280;51832;48.152;11.530;2023-10-31T09:42:44;94504.78;;;12.20;90.10
56600;BME280;51832;48.152;11.530;2023-10-31T09:47:46;94505.81;;;12.14;90.27
56600;BME280;51832;48.152;11.530;2023-10-31T09:52:46;94503.00;;;12.30;89.83
56600;BME280;51832;48.152;11.530;2023-10-31T09:57:47;94484.88;;;11.97;90.48
56600;BME280;51832;48.152;11.530;2023-10-31T10:02:49;94489.78;;;12.25;89.84
56600;BME280;51832;48.152;11.530;2023-10-31T10:07:49;94505.03;;;12.18;89.95
56600;BME280;51832;48.152;11.530;2023-10-31T10:12:53;94511.41;;;12.69;88.01
56600;BME280;51832;48.152;11.530;2023-10-31T10:17:55;94540.09;;;12.56;87.94
56600;BME280;51832;48.152;11.530;2023-10-31T10:23:03;94542.03;;;12.70;87.24
56600;BME280;51832;48.152;11.530;2023-10-31T10:28:04;94534.81;;;12.61;87.62
56600;BME280;51832;48.152;11.530;2023-10-31T10:33:05;94538.63;;;12.33;88.12
56600;BME280;51832;48.152;11.530;2023-10-31T10:38:17;94539.44;;;12.86;87.07
56600;BME280;51832;48.152;11.530;2023-10-31T10:43:25;94532.25;;;12.71;86.91
56600;BME280;51832;48.152;11.530;2023-10-31T10:48:26;94533.94;;;12.97;86.18
56600;BME280;51832;48.152;11.530;2023-10-31T10:53:30;94543.41;;;12.88;86.68
56600;BME280;51832;48.152;11.530;2023-10-31T10:58:44;94527.09;;;12.96;86.01
56600;BME280;51832;48.152;11.530;2023-10-31T11:03:51;94538.63;;;12.80;86.42
56600;BME280;51832;48.152;11.530;2023-10-31T11:08:53;94539.00;;;13.09;85.03
56600;BME280;51832;48.152;11.530;2023-10-31T11:13:55;94535.66;;;12.71;85.03
56600;BME280;51832;48.152;11.530;2023-10-31T11:18:57;94525.78;;;13.04;84.06
56600;BME280;51832;48.152;11.530;2023-10-31T11:23:58;94520.88;;;13.33;83.11
56600;BME280;51832;48.152;11.530;2023-10-31T11:29:06;94525.94;;;13.70;81.97
56600;BME280;51832;48.152;11.530;2023-10-31T11:34:07;94523.03;;;13.56;81.15
56600;BME280;51832;48.152;11.530;2023-10-31T11:39:12;94528.59;;;13.65;80.00
56600;BME280;51832;48.152;11.530;2023-10-31T11:44:17;94525.66;;;13.46;80.46
56600;BME280;51832;48.152;11.530;2023-10-31T11:49:47;94531.09;;;13.14;80.87
56600;BME280;51832;48.152;11.530;2023-10-31T11:54:50;94531.88;;;13.09;80.45
56600;BME280;51832;48.152;11.530;2023-10-31T11:59:51;94510.28;;;13.28;80.38
56600;BME280;51832;48.152;11.530;2023-10-31T12:05:06;94505.06;;;13.88;79.28
56600;BME280;51832;48.152;11.530;2023-10-31T12:10:07;94508.25;;;13.75;79.54
56600;BME280;51832;48.152;11.530;2023-10-31T12:15:08;94493.66;;;14.29;78.01
56600;BME280;51832;48.152;11.530;2023-10-31T12:20:09;94507.44;;;14.10;78.72
56600;BME280;51832;48.152;11.530;2023-10-31T12:25:10;94505.06;;;14.04;79.62
56600;BME280;51832;48.152;11.530;2023-10-31T12:30:13;94496.09;;;13.64;80.06
56600;BME280;51832;48.152;11.530;2023-10-31T12:35:18;94522.00;;;13.77;79.47
56600;BME280;51832;48.152;11.530;2023-10-31T12:40:21;94499.25;;;13.92;79.04
56600;BME280;51832;48.152;11.530;2023-10-31T12:45:21;94507.19;;;13.61;78.81
56600;BME280;51832;48.152;11.530;2023-10-31T12:50:22;94525.66;;;13.46;80.30
56600;BME280;51832;48.152;11.530;2023-10-31T12:55:26;94514.31;;;13.50;81.76
56600;BME280;51832;48.152;11.530;2023-10-31T13:00:35;94521.66;;;13.28;83.56
56600;BME280;51832;48.152;11.530;2023-10-31T13:05:35;94527.97;;;13.27;83.96
56600;BME280;51832;48.152;11.530;2023-10-31T13:10:41;94543.09;;;13.57;84.41
56600;BME280;51832;48.152;11.530;2023-10-31T13:15:43;94570.69;;;13.09;88.18
56600;BME280;51832;48.152;11.530;2023-10-31T13:20:44;94557.69;;;12.92;91.03
56600;BME280;51832;48.152;11.530;2023-10-31T13:25:45;94560.53;;;12.86;92.29
56600;BME280;51832;48.152;11.530;2023-10-31T13:30:45;94567.78;;;13.05;91.15
56600;BME280;51832;48.152;11.530;2023-10-31T13:35:48;94566.31;;;13.30;90.00
56600;BME280;51832;48.152;11.530;2023-10-31T13:40:48;94579.09;;;13.01;91.57
56600;BME280;51832;48.152;11.530;2023-10-31T13:45:49;94587.69;;;12.71;93.52
56600;BME280;51832;48.152;11.530;2023-10-31T13:50:49;94592.41;;;13.16;92.47
56600;BME280;51832;48.152;11.530;2023-10-31T13:55:50;94585.53;;;13.15;92.92
56600;BME280;51832;48.152;11.530;2023-10-31T14:00:50;94596.81;;;13.05;92.99
56600;BME280;51832;48.152;11.530;2023-10-31T14:05:51;94611.31;;;12.98;92.70
56600;BME280;51832;48.152;11.530;2023-10-31T14:10:51;94612.88;;;12.94;92.60
56600;BME280;51832;48.152;11.530;2023-10-31T14:15:51;94623.09;;;13.22;89.91
56600;BME280;51832;48.152;11.530;2023-10-31T14:20:52;94621.19;;;12.70;92.03
56600;BME280;51832;48.152;11.530;2023-10-31T14:25:53;94631.41;;;13.04;90.13
56600;BME280;51832;48.152;11.530;2023-10-31T14:30:53;94629.06;;;13.12;90.20
56600;BME280;51832;48.152;11.530;2023-10-31T14:35:54;94636.28;;;13.22;90.20
56600;BME280;51832;48.152;11.530;2023-10-31T14:40:54;94635.97;;;13.96;87.23
56600;BME280;51832;48.152;11.530;2023-10-31T14:45:55;94643.91;;;13.91;88.22
56600;BME280;51832;48.152;11.530;2023-10-31T14:50:56;94654.75;;;13.79;89.23
56600;BME280;51832;48.152;11.530;2023-10-31T14:55:59;94657.28;;;13.54;91.56
56600;BME280;51832;48.152;11.530;2023-10-31T15:01:02;94652.56;;;13.61;90.86
56600;BME280;51832;48.152;11.530;2023-10-31T15:06:04;94656.28;;;13.70;89.98
56600;BME280;51832;48.152;11.530;2023-10-31T15:11:07;94652.94;;;14.05;88.16
56600;BME280;51832;48.152;11.530;2023-10-31T15:16:08;94665.06;;;13.86;89.90
56600;BME280;51832;48.152;11.530;2023-10-31T15:21:08;94669.09;;;14.34;86.88
56600;BME280;51832;48.152;11.530;2023-10-31T15:26:09;94678.59;;;14.25;86.92
56600;BME280;51832;48.152;11.530;2023-10-31T15:31:13;94676.28;;;14.84;83.68
56600;BME280;51832;48.152;11.530;2023-10-31T15:36:13;94674.97;;;14.72;82.75
56600;BME280;51832;48.152;11.530;2023-10-31T15:41:14;94676.81;;;14.61;84.28
56600;BME280;51832;48.152;11.530;2023-10-31T15:46:14;94681.31;;;14.55;83.49
56600;BME280;51832;48.152;11.530;2023-10-31T15:51:15;94696.56;;;14.03;85.76
56600;BME280;51832;48.152;11.530;2023-10-31T15:56:15;94695.22;;;13.95;86.36
56600;BME280;51832;48.152;11.530;2023-10-31T16:01:16;94703.53;;;13.57;88.24
56600;BME280;51832;48.152;11.530;2023-10-31T16:06:16;94709.19;;;13.80;86.12
56600;BME280;51832;48.152;11.530;2023-10-31T16:11:17;94716.47;;;13.53;87.62
56600;BME280;51832;48.152;11.530;2023-10-31T16:16:17;94715.34;;;13.34;88.46
56600;BME280;51832;48.152;11.530;2023-10-31T16:21:22;94735.16;;;13.36;89.28
56600;BME280;51832;48.152;11.530;2023-10-31T16:26:22;94746.00;;;13.40;88.80
56600;BME280;51832;48.152;11.530;2023-10-31T16:31:23;94752.94;;;13.14;88.59
56600;BME280;51832;48.152;11.530;2023-10-31T16:36:24;94763.84;;;13.18;88.93
56600;BME280;51832;48.152;11.530;2023-10-31T16:41:25;94765.22;;;13.25;89.34
56600;BME280;51832;48.152;11.530;2023-10-31T16:46:26;94776.25;;;13.17;88.26
56600;BME280;51832;48.152;11.530;2023-10-31T16:51:27;94781.41;;;13.02;89.17
56600;BME280;51832;48.152;11.530;2023-10-31T16:56:27;94783.88;;;12.81;89.96
56600;BME280;51832;48.152;11.530;2023-10-31T17:01:28;94798.50;;;12.94;89.13
56600;BME280;51832;48.152;11.530;2023-10-31T17:06:28;94796.06;;;12.88;89.53
56600;BME280;51832;48.152;11.530;2023-10-31T17:11:29;94814.78;;;12.81;89.20
56600;BME280;51832;48.152;11.530;2023-10-31T17:16:29;94819.25;;;12.80;89.93
56600;BME280;51832;48.152;11.530;2023-10-31T17:21:30;94843.34;;;12.89;89.74
56600;BME280;51832;48.152;11.530;2023-10-31T17:26:30;94829.09;;;12.90;89.44
56600;BME280;51832;48.152;11.530;2023-10-31T17:31:31;94840.41;;;12.86;90.09
56600;BME280;51832;48.152;11.530;2023-10-31T17:36:35;94858.63;;;12.60;90.56
56600;BME280;51832;48.152;11.530;2023-10-31T17:41:35;94856.94;;;12.76;90.48
56600;BME280;51832;48.152;11.530;2023-10-31T17:46:36;94869.31;;;12.70;90.39
56600;BME280;51832;48.152;11.530;2023-10-31T17:51:42;94890.13;;;12.45;93.28
56600;BME280;51832;48.152;11.530;2023-10-31T17:56:43;94874.56;;;12.22;95.30
56600;BME280;51832;48.152;11.530;2023-10-31T18:01:43;94894.47;;;12.29;94.90
56600;BME280;51832;48.152;11.530;2023-10-31T18:06:44;94891.31;;;12.54;95.12
56600;BME280;51832;48.152;11.530;2023-10-31T18:11:45;94901.56;;;12.51;95.76
56600;BME280;51832;48.152;11.530;2023-10-31T18:16:46;94898.94;;;12.29;96.87
56600;BME280;51832;48.152;11.530;2023-10-31T18:21:46;94908.56;;;12.40;97.19
56600;BME280;51832;48.152;11.530;2023-10-31T18:26:46;94921.44;;;12.36;97.34
56600;BME280;51832;48.152;11.530;2023-10-31T18:31:47;94929.94;;;12.22;98.78
56600;BME280;51832;48.152;11.530;2023-10-31T18:36:49;94933.75;;;12.31;99.19
56600;BME280;51832;48.152;11.530;2023-10-31T18:41:49;94939.16;;;12.19;99.58
56600;BME280;51832;48.152;11.530;2023-10-31T18:46:50;94933.81;;;12.36;99.02
56600;BME280;51832;48.152;11.530;2023-10-31T18:51:50;94944.63;;;11.96;100.00
56600;BME280;51832;48.152;11.530;2023-10-31T18:56:51;94946.03;;;12.20;100.00
56600;BME280;51832;48.152;11.530;2023-10-31T19:01:57;94957.97;;;12.06;100.00
56600;BME280;51832;48.152;11.530;2023-10-31T19:06:58;94962.78;;;11.75;100.00
56600;BME280;51832;48.152;11.530;2023-10-31T19:11:59;94949.22;;;12.22;99.21
56600;BME280;51832;48.152;11.530;2023-10-31T19:16:59;94971.16;;;11.89;100.00
56600;BME280;51832;48.152;11.530;2023-10-31T19:22:00;94960.47;;;12.18;99.21
56600;BME280;51832;48.152;11.530;2023-10-31T19:27:06;94980.97;;;12.10;99.71
56600;BME280;51832;48.152;11.530;2023-10-31T19:32:07;94986.25;;;11.94;99.83
56600;BME280;51832;48.152;11.530;2023-10-31T19:37:08;95002.88;;;12.11;99.30
56600;BME280;51832;48.152;11.530;2023-10-31T19:42:08;95007.19;;;12.00;99.46
56600;BME280;51832;48.152;11.530;2023-10-31T19:47:09;95006.28;;;12.28;98.78
56600;BME280;51832;48.152;11.530;2023-10-31T19:52:11;95012.28;;;12.07;99.43
56600;BME280;51832;48.152;11.530;2023-10-31T19:57:11;95013.31;;;12.23;99.16
56600;BME280;51832;48.152;11.530;2023-10-31T20:02:17;95013.75;;;12.53;100.00
56600;BME280;51832;48.152;11.530;2023-10-31T20:07:17;95025.38;;;12.35;98.57
56600;BME280;51832;48.152;11.530;2023-10-31T20:12:17;95022.97;;;12.17;99.19
56600;BME280;51832;48.152;11.530;2023-10-31T20:17:18;95029.47;;;11.93;100.00
56600;BME280;51832;48.152;11.530;2023-10-31T20:22:19;95043.63;;;12.03;99.72
56600;BME280;51832;48.152;11.530;2023-10-31T20:27:20;95044.34;;;11.82;100.00
56600;BME280;51832;48.152;11.530;2023-10-31T20:32:22;95045.53;;;11.91;99.86
56600;BME280;51832;48.152;11.530;2023-10-31T20:37:22;95034.41;;;11.89;99.44
56600;BME280;51832;48.152;11.530;2023-10-31T20:42:26;95061.53;;;11.85;99.17
56600;BME280;51832;48.152;11.530;2023-10-31T20:47:26;95035.16;;;12.01;97.93
56600;BME280;51832;48.152;11.530;2023-10-31T20:52:26;95053.44;;;12.08;97.35
56600;BME280;51832;48.152;11.530;2023-10-31T20:57:27;95041.75;;;12.37;96.17
56600;BME280;51832;48.152;11.530;2023-10-31T21:02:27;95042.00;;;12.36;96.46
56600;BME280;51832;48.152;11.530;2023-10-31T21:07:28;95046.00;;;12.22;96.58
56600;BME280;51832;48.152;11.530;2023-10-31T21:12:28;95077.19;;;12.08;97.42
56600;BME280;51832;48.152;11.530;2023-10-31T21:17:34;95055.19;;;12.19;98.20
56600;BME280;51832;48.152;11.530;2023-10-31T21:22:35;95059.53;;;12.25;98.24
56600;BME280;51832;48.152;11.530;2023-10-31T21:27:35;95059.34;;;12.32;98.32
56600;BME280;51832;48.152;11.530;2023-10-31T21:32:39;95073.16;;;12.56;97.47
56600;BME280;51832;48.152;11.530;2023-10-31T21:37:42;95069.41;;;12.18;98.39
56600;BME280;51832;48.152;11.530;2023-10-31T21:42:45;95068.94;;;12.21;98.64
56600;BME280;51832;48.152;11.530;2023-10-31T21:47:46;95082.94;;;12.22;97.96
56600;BME280;51832;48.152;11.530;2023-10-31T21:52:46;95080.28;;;12.55;96.25
56600;BME280;51832;48.152;11.530;2023-10-31T21:57:47;95077.34;;;12.35;96.06
56600;BME280;51832;48.152;11.530;2023-10-31T22:02:47;95075.47;;;12.52;95.22
56600;BME280;51832;48.152;11.530;2023-10-31T22:07:47;95070.44;;;12.51;94.94
56600;BME280;51832;48.152;11.530;2023-10-31T22:12:50;95074.03;;;12.44;94.78
56600;BME280;51832;48.152;11.530;2023-10-31T22:17:51;95068.03;;;12.49;94.14
56600;BME280;51832;48.152;11.530;2023-10-31T22:22:51;95086.59;;;12.37;95.30
56600;BME280;51832;48.152;11.530;2023-10-31T22:27:53;95079.97;;;12.52;94.00
56600;BME280;51832;48.152;11.530;2023-10-31T22:32:53;95089.72;;;12.18;94.70
56600;BME280;51832;48.152;11.530;2023-10-31T22:37:53;95090.72;;;12.67;92.87
56600;BME280;51832;48.152;11.530;2023-10-31T22:42:57;95086.72;;;12.64;92.64
56600;BME280;51832;48.152;11.530;2023-10-31T22:47:58;95088.47;;;12.75;91.62
56600;BME280;51832;48.152;11.530;2023-10-31T22:52:58;95096.50;;;12.86;91.02
56600;BME280;51832;48.152;11.530;2023-10-31T22:57:59;95093.47;;;12.94;90.64
56600;BME280;51832;48.152;11.530;2023-10-31T23:03:00;95103.72;;;12.52;91.91
56600;BME280;51832;48.152;11.530;2023-10-31T23:08:01;95101.09;;;12.73;90.48
56600;BME280;51832;48.152;11.530;2023-10-31T23:13:02;95110.72;;;12.79;90.41
56600;BME280;51832;48.152;11.530;2023-10-31T23:18:04;95102.94;;;13.11;88.93
56600;BME280;51832;48.152;11.530;2023-10-31T23:23:05;95111.88;;;12.89;89.47
56600;BME280;51832;48.152;11.530;2023-10-31T23:28:06;95106.25;;;12.63;90.60
56600;BME280;51832;48.152;11.530;2023-10-31T23:33:07;95115.16;;;12.57;90.01
56600;BME280;51832;48.152;11.530;2023-10-31T23:38:07;95117.00;;;12.57;90.03
56600;BME280;51832;48.152;11.530;2023-10-31T23:43:07;95131.03;;;12.62;88.92
56600;BME280;51832;48.152;11.530;2023-10-31T23:48:08;95114.69;;;12.43;89.32
56600;BME280;51832;48.152;11.530;2023-10-31T23:53:08;95116.66;;;12.36;89.63
56600;BME280;51832;48.152;11.530;2023-10-31T23:58:09;95111.72;;;12.23;89.88
